createdAt,value
2018-05-09T00:00:36.508Z,5.30
2018-05-09T00:03:04.010Z,5.03
2018-05-09T00:05:31.484Z,4.70
2018-05-09T00:07:58.952Z,13.33
2018-05-09T00:10:26.424Z,8.63
2018-05-09T00:12:53.903Z,4.43
2018-05-09T00:15:21.452Z,8.43
2018-05-09T00:17:48.905Z,6.57
2018-05-09T00:20:16.376Z,6.30
2018-05-09T00:22:43.828Z,6.20
2018-05-09T00:25:11.312Z,6.33
2018-05-09T00:27:38.847Z,4.50
2018-05-09T00:30:06.304Z,3.37
2018-05-09T00:32:34.085Z,7.53
2018-05-09T00:35:01.556Z,10.03
2018-05-09T00:37:29.023Z,4.87
2018-05-09T00:39:56.499Z,5.50
2018-05-09T00:42:23.948Z,5.60
2018-05-09T00:44:51.543Z,8.43
2018-05-09T00:47:19.783Z,14.30
2018-05-09T00:49:47.232Z,4.00
2018-05-09T00:52:14.712Z,9.90
2018-05-09T00:54:42.225Z,11.33
2018-05-09T00:57:09.685Z,5.40
2018-05-09T00:59:37.185Z,7.20
2018-05-09T01:02:04.643Z,6.53
2018-05-09T01:04:32.102Z,4.73
2018-05-09T01:06:59.580Z,5.83
2018-05-09T01:09:27.124Z,8.20
2018-05-09T01:11:54.532Z,10.83
2018-05-09T01:14:22.031Z,10.63
2018-05-09T01:16:49.515Z,4.77
2018-05-09T01:19:17.748Z,9.47
2018-05-09T01:21:45.220Z,4.50
2018-05-09T01:24:12.688Z,8.30
2018-05-09T01:26:40.148Z,7.53
2018-05-09T01:29:07.629Z,6.30
2018-05-09T01:31:35.892Z,4.70
2018-05-09T01:34:04.122Z,5.03
2018-05-09T01:36:31.643Z,6.80
2018-05-09T01:38:59.895Z,5.10
2018-05-09T01:41:27.345Z,4.53
2018-05-09T01:43:54.823Z,11.63
2018-05-09T01:46:23.114Z,9.73
2018-05-09T01:48:51.360Z,5.47
2018-05-09T01:51:18.845Z,6.50
2018-05-09T01:53:47.061Z,7.40
2018-05-09T01:56:14.521Z,10.07
2018-05-09T01:58:42.020Z,5.93
2018-05-09T02:01:09.474Z,7.47
2018-05-09T02:03:36.935Z,8.97
2018-05-09T02:06:04.447Z,8.23
2018-05-09T02:08:31.916Z,14.03
2018-05-09T02:10:59.373Z,7.10
2018-05-09T02:13:26.832Z,9.57
2018-05-09T02:15:54.308Z,7.83
2018-05-09T02:18:21.772Z,6.57
2018-05-09T02:20:49.257Z,8.73
2018-05-09T02:23:17.465Z,5.93
2018-05-09T02:25:44.984Z,6.80
2018-05-09T02:28:12.461Z,15.10
2018-05-09T02:30:39.912Z,9.97
2018-05-09T02:33:07.404Z,17.73
2018-05-09T02:35:34.936Z,7.17
2018-05-09T02:38:03.176Z,10.27
2018-05-09T02:40:30.649Z,7.90
2018-05-09T02:42:58.887Z,8.43
2018-05-09T02:45:26.364Z,8.37
2018-05-09T02:47:53.840Z,7.30
2018-05-09T02:50:22.080Z,6.00
2018-05-09T02:52:49.558Z,9.73
2018-05-09T02:55:17.010Z,4.33
2018-05-09T02:57:44.482Z,7.07
2018-05-09T03:00:11.939Z,13.37
2018-05-09T03:02:39.425Z,13.40
2018-05-09T03:05:06.974Z,17.67
2018-05-09T03:07:35.221Z,6.70
2018-05-09T03:10:02.676Z,8.03
2018-05-09T03:12:30.155Z,8.43
2018-05-09T03:14:57.623Z,9.50
2018-05-09T03:17:25.077Z,8.60
2018-05-09T03:19:52.560Z,8.83
2018-05-09T03:22:20.784Z,5.90
2018-05-09T03:24:48.255Z,7.03
2018-05-09T03:27:15.716Z,11.80
2018-05-09T03:29:43.616Z,18.37
2018-05-09T03:32:11.038Z,6.00
2018-05-09T03:34:38.567Z,7.03
2018-05-09T03:37:06.038Z,8.30
2018-05-09T03:39:33.517Z,8.33
2018-05-09T03:42:00.964Z,7.40
2018-05-09T03:44:28.457Z,12.17
2018-05-09T03:46:55.907Z,7.60
2018-05-09T03:49:23.359Z,6.33
2018-05-09T03:51:50.832Z,6.87
2018-05-09T03:54:19.053Z,9.10
2018-05-09T03:56:46.532Z,7.33
2018-05-09T03:59:13.984Z,7.47
2018-05-09T04:01:53.317Z,9.90
2018-05-09T04:04:32.626Z,9.67
2018-05-09T04:07:11.801Z,10.83
2018-05-09T04:09:50.405Z,6.27
2018-05-09T04:12:17.927Z,6.30
2018-05-09T04:14:45.358Z,12.73
2018-05-09T04:17:12.827Z,7.97
2018-05-09T04:19:41.064Z,5.30
2018-05-09T04:22:08.673Z,5.43
2018-05-09T04:24:36.140Z,11.10
2018-05-09T04:27:03.632Z,10.43
2018-05-09T04:29:31.082Z,11.10
2018-05-09T04:31:58.534Z,12.77
2018-05-09T04:34:26.017Z,9.53
2018-05-09T04:36:53.465Z,8.70
2018-05-09T04:39:20.944Z,12.87
2018-05-09T04:41:48.610Z,11.53
2018-05-09T04:44:16.083Z,6.30
2018-05-09T04:46:43.565Z,13.43
2018-05-09T04:49:11.284Z,7.10
2018-05-09T04:51:38.685Z,10.97
2018-05-09T04:54:06.143Z,6.87
2018-05-09T04:56:34.424Z,15.20
2018-05-09T04:59:01.890Z,11.03
2018-05-09T05:01:29.364Z,11.53
2018-05-09T05:03:56.845Z,13.80
2018-05-09T05:06:24.344Z,10.60
2018-05-09T05:08:51.821Z,12.40
2018-05-09T05:11:19.272Z,8.23
2018-05-09T05:13:46.760Z,25.53
2018-05-09T05:16:14.220Z,7.90
2018-05-09T05:18:41.720Z,14.77
2018-05-09T05:21:09.176Z,11.30
2018-05-09T05:23:36.625Z,8.30
2018-05-09T05:26:04.121Z,7.67
2018-05-09T05:28:31.619Z,7.80
2018-05-09T05:30:59.904Z,7.03
2018-05-09T05:33:27.874Z,7.90
2018-05-09T05:35:55.367Z,14.70
2018-05-09T05:38:23.274Z,17.83
2018-05-09T05:40:50.744Z,11.83
2018-05-09T05:43:18.236Z,14.20
2018-05-09T05:45:45.692Z,13.00
2018-05-09T05:48:13.288Z,16.23
2018-05-09T05:50:41.534Z,15.53
2018-05-09T05:53:09.197Z,17.10
2018-05-09T05:55:36.682Z,16.47
2018-05-09T05:58:04.930Z,14.90
2018-05-09T06:00:32.384Z,15.30
2018-05-09T06:02:59.971Z,15.90
2018-05-09T06:05:27.458Z,13.60
2018-05-09T06:07:55.047Z,14.87
2018-05-09T06:10:22.486Z,14.30
2018-05-09T06:12:49.947Z,18.70
2018-05-09T06:15:17.432Z,12.17
2018-05-09T06:17:44.888Z,11.33
2018-05-09T06:20:12.373Z,12.50
2018-05-09T06:22:39.830Z,30.73
2018-05-09T06:25:07.310Z,9.83
2018-05-09T06:27:35.532Z,12.70
2018-05-09T06:30:03.030Z,14.87
2018-05-09T06:32:31.302Z,12.20
2018-05-09T06:34:58.768Z,25.27
2018-05-09T06:37:26.238Z,13.87
2018-05-09T06:39:53.709Z,18.00
2018-05-09T06:42:21.162Z,12.60
2018-05-09T06:44:48.641Z,14.97
2018-05-09T06:47:16.216Z,34.63
2018-05-09T06:49:43.687Z,26.93
2018-05-09T06:52:11.131Z,16.23
2018-05-09T06:54:38.612Z,28.40
2018-05-09T06:57:06.075Z,16.57
2018-05-09T06:59:33.560Z,15.73
2018-05-09T07:02:01.017Z,13.73
2018-05-09T07:04:28.471Z,20.07
2018-05-09T07:06:55.944Z,17.50
2018-05-09T07:09:23.436Z,12.50
2018-05-09T07:11:50.924Z,13.40
2018-05-09T07:14:18.383Z,23.33
2018-05-09T07:16:45.896Z,10.70
2018-05-09T07:19:13.348Z,16.63
2018-05-09T07:21:40.813Z,12.80
2018-05-09T07:24:08.295Z,18.90
2018-05-09T07:26:35.879Z,16.60
2018-05-09T07:29:04.167Z,11.40
2018-05-09T07:31:31.622Z,31.67
2018-05-09T07:33:59.076Z,16.27
2018-05-09T07:36:26.572Z,23.33
2018-05-09T07:38:54.039Z,19.40
2018-05-09T07:41:21.489Z,30.70
2018-05-09T07:43:48.981Z,16.70
2018-05-09T07:46:16.441Z,11.93
2018-05-09T07:48:43.920Z,13.97
2018-05-09T07:51:11.379Z,12.97
2018-05-09T07:53:38.855Z,10.67
2018-05-09T07:56:06.328Z,12.40
2018-05-09T07:58:34.009Z,17.70
2018-05-09T08:01:01.480Z,23.93
2018-05-09T08:03:28.937Z,10.87
2018-05-09T08:05:56.538Z,21.43
2018-05-09T08:08:23.943Z,22.13
2018-05-09T08:10:51.405Z,16.57
2018-05-09T08:13:18.885Z,30.20
2018-05-09T08:15:46.397Z,14.03
2018-05-09T08:18:13.828Z,8.60
2018-05-09T08:20:41.296Z,10.93
2018-05-09T08:23:08.772Z,11.00
2018-05-09T08:25:36.236Z,10.50
2018-05-09T08:28:03.726Z,13.00
2018-05-09T08:30:31.181Z,13.57
2018-05-09T08:32:58.664Z,20.57
2018-05-09T08:35:26.128Z,20.17
2018-05-09T08:37:53.706Z,11.07
2018-05-09T08:40:21.105Z,25.23
2018-05-09T08:42:48.603Z,13.47
2018-05-09T08:45:16.076Z,11.63
2018-05-09T08:47:43.568Z,16.70
2018-05-09T08:50:11.073Z,16.00
2018-05-09T08:52:38.552Z,18.63
2018-05-09T08:55:06.008Z,24.77
2018-05-09T08:57:33.495Z,12.83
2018-05-09T09:00:01.740Z,15.53
2018-05-09T09:02:29.204Z,11.80
2018-05-09T09:04:56.765Z,9.10
2018-05-09T09:07:24.241Z,9.60
2018-05-09T09:09:52.471Z,14.73
2018-05-09T09:12:19.953Z,17.43
2018-05-09T09:14:47.410Z,13.93
2018-05-09T09:17:14.885Z,10.70
2018-05-09T09:19:42.345Z,9.03
2018-05-09T09:22:09.829Z,14.80
2018-05-09T09:24:37.287Z,10.70
2018-05-09T09:27:04.768Z,11.13
2018-05-09T09:29:32.248Z,15.50
2018-05-09T09:31:59.710Z,15.20
2018-05-09T09:34:27.193Z,23.30
2018-05-09T09:36:55.421Z,16.40
2018-05-09T09:39:22.889Z,8.90
2018-05-09T09:41:50.367Z,14.13
2018-05-09T09:44:17.838Z,11.70
2018-05-09T09:46:45.317Z,8.43
2018-05-09T09:49:13.544Z,6.77
2018-05-09T09:51:41.034Z,7.63
2018-05-09T09:54:09.276Z,18.23
2018-05-09T09:56:36.745Z,9.60
2018-05-09T09:59:04.241Z,20.80
2018-05-09T10:01:32.465Z,9.80
2018-05-09T10:03:59.908Z,16.67
2018-05-09T10:06:27.433Z,27.70
2018-05-09T10:08:55.675Z,19.87
2018-05-09T10:11:23.164Z,9.67
2018-05-09T10:13:51.389Z,8.10
2018-05-09T10:16:18.872Z,8.20
2018-05-09T10:18:46.323Z,19.90
2018-05-09T10:21:13.804Z,8.40
2018-05-09T10:23:41.281Z,10.60
2018-05-09T10:26:09.536Z,9.93
2018-05-09T10:28:37.007Z,8.10
2018-05-09T10:31:05.236Z,8.30
2018-05-09T10:33:32.720Z,10.23
2018-05-09T10:36:00.205Z,11.27
2018-05-09T10:38:28.452Z,9.57
2018-05-09T10:40:55.947Z,3.90
2018-05-09T10:43:24.164Z,7.00
2018-05-09T10:45:51.617Z,3.00
2018-05-09T10:48:19.261Z,4.80
2018-05-09T10:50:46.751Z,6.23
2018-05-09T10:53:14.183Z,4.63
2018-05-09T10:55:41.749Z,3.50
2018-05-09T10:58:09.213Z,4.23
2018-05-09T11:00:36.702Z,4.77
2018-05-09T11:03:04.183Z,6.73
2018-05-09T11:05:31.755Z,3.93
2018-05-09T11:07:59.995Z,3.10
2018-05-09T11:10:27.472Z,18.13
2018-05-09T11:12:54.944Z,4.30
2018-05-09T11:15:23.172Z,8.93
2018-05-09T11:17:50.725Z,4.10
2018-05-09T11:20:18.201Z,17.97
2018-05-09T11:22:45.658Z,7.23
2018-05-09T11:25:13.149Z,2.87
2018-05-09T11:27:40.604Z,12.47
2018-05-09T11:30:08.089Z,10.03
2018-05-09T11:32:35.540Z,3.30
2018-05-09T11:35:03.116Z,10.53
2018-05-09T11:37:30.630Z,6.10
2018-05-09T11:39:58.077Z,4.13
2018-05-09T11:42:25.557Z,7.40
2018-05-09T11:44:53.023Z,10.93
2018-05-09T11:47:21.253Z,13.07
2018-05-09T11:49:48.819Z,3.33
2018-05-09T11:52:16.269Z,11.23
2018-05-09T11:54:43.684Z,8.20
2018-05-09T11:57:11.169Z,7.50
2018-05-09T11:59:38.629Z,4.13
2018-05-09T12:02:06.269Z,8.40
2018-05-09T12:04:33.731Z,8.83
2018-05-09T12:07:01.178Z,7.57
2018-05-09T12:09:28.640Z,4.77
2018-05-09T12:11:56.116Z,6.80
2018-05-09T12:14:23.609Z,6.63
2018-05-09T12:16:51.837Z,5.23
2018-05-09T12:19:19.324Z,6.53
2018-05-09T12:21:46.780Z,2.80
2018-05-09T12:24:14.335Z,18.63
2018-05-09T12:26:41.809Z,8.00
2018-05-09T12:29:09.270Z,9.33
2018-05-09T12:31:36.752Z,7.43
2018-05-09T12:34:04.206Z,3.43
2018-05-09T12:36:31.725Z,4.50
2018-05-09T12:38:59.148Z,5.37
2018-05-09T12:41:27.385Z,7.20
2018-05-09T12:43:54.836Z,9.40
2018-05-09T12:46:22.322Z,14.20
2018-05-09T12:48:49.969Z,5.40
2018-05-09T12:51:17.436Z,5.17
2018-05-09T12:53:44.893Z,9.67
2018-05-09T12:56:12.392Z,8.60
2018-05-09T12:58:39.858Z,6.30
2018-05-09T13:01:07.311Z,5.00
2018-05-09T13:03:35.013Z,5.73
2018-05-09T13:06:02.488Z,7.33
2018-05-09T13:08:29.957Z,4.33
2018-05-09T13:10:57.462Z,4.43
2018-05-09T13:13:24.949Z,9.73
2018-05-09T13:15:52.419Z,5.70
2018-05-09T13:18:19.880Z,3.70
2018-05-09T13:20:47.368Z,4.90
2018-05-09T13:23:15.595Z,11.73
2018-05-09T13:25:43.164Z,16.37
2018-05-09T13:28:10.595Z,9.17
2018-05-09T13:30:38.085Z,7.43
2018-05-09T13:33:05.552Z,5.20
2018-05-09T13:35:33.036Z,11.43
2018-05-09T13:38:00.493Z,7.10
2018-05-09T13:40:28.733Z,6.53
2018-05-09T13:42:56.204Z,5.90
2018-05-09T13:45:23.681Z,6.30
2018-05-09T13:47:51.220Z,5.60
2018-05-09T13:50:18.685Z,10.80
2018-05-09T13:52:46.199Z,6.67
2018-05-09T13:55:13.647Z,6.23
2018-05-09T13:57:41.115Z,6.30
2018-05-09T14:00:08.584Z,7.87
2018-05-09T14:02:36.045Z,7.13
2018-05-09T14:05:03.521Z,9.23
2018-05-09T14:07:30.977Z,5.77
2018-05-09T14:09:58.514Z,10.37
2018-05-09T14:12:26.000Z,4.60
2018-05-09T14:14:53.480Z,6.80
2018-05-09T14:17:21.701Z,7.50
2018-05-09T14:19:49.168Z,6.70
2018-05-09T14:22:16.653Z,7.40
2018-05-09T14:24:44.135Z,10.40
2018-05-09T14:27:12.412Z,6.20
2018-05-09T14:29:40.653Z,5.23
2018-05-09T14:32:08.201Z,15.90
2018-05-09T14:34:35.626Z,10.73
2018-05-09T14:37:03.081Z,7.13
2018-05-09T14:39:30.568Z,10.13
2018-05-09T14:41:58.029Z,2.67
2018-05-09T14:44:25.537Z,5.53
2018-05-09T14:46:53.001Z,2.77
2018-05-09T14:49:21.239Z,4.07
2018-05-09T14:51:48.693Z,3.53
2018-05-09T14:54:16.140Z,11.90
2018-05-09T14:56:43.607Z,9.77
2018-05-09T14:59:11.057Z,8.80
2018-05-09T15:01:38.537Z,6.13
2018-05-09T15:04:06.025Z,5.27
2018-05-09T15:06:33.484Z,5.87
2018-05-09T15:09:00.942Z,2.30
2018-05-09T15:11:28.418Z,4.00
2018-05-09T15:13:55.915Z,6.67
2018-05-09T15:16:23.416Z,11.93
2018-05-09T15:18:51.661Z,4.70
2018-05-09T15:21:19.136Z,6.60
2018-05-09T15:23:46.609Z,12.60
2018-05-09T15:26:14.077Z,6.97
2018-05-09T15:28:41.548Z,9.00
2018-05-09T15:31:09.031Z,9.40
2018-05-09T15:33:36.487Z,5.13
2018-05-09T15:36:03.968Z,6.90
2018-05-09T15:38:31.442Z,8.23
2018-05-09T15:40:59.003Z,6.20
2018-05-09T15:43:26.521Z,12.73
2018-05-09T15:45:54.045Z,7.70
2018-05-09T15:48:22.263Z,12.03
2018-05-09T15:50:49.724Z,7.03
2018-05-09T15:53:17.969Z,6.37
2018-05-09T15:55:45.418Z,7.03
2018-05-09T15:58:12.883Z,3.83
2018-05-09T16:00:40.430Z,7.53
2018-05-09T16:03:07.841Z,8.27
2018-05-09T16:05:35.288Z,7.73
2018-05-09T16:08:02.744Z,8.07
2018-05-09T16:10:30.253Z,7.07
2018-05-09T16:12:57.702Z,7.23
2018-05-09T16:15:25.187Z,7.07
2018-05-09T16:17:53.415Z,14.77
2018-05-09T16:20:20.903Z,19.33
2018-05-09T16:22:49.148Z,15.20
2018-05-09T16:25:17.041Z,8.97
2018-05-09T16:27:45.512Z,8.43
2018-05-09T16:30:12.964Z,8.47
2018-05-09T16:32:40.455Z,11.40
2018-05-09T16:35:08.674Z,8.57
2018-05-09T16:37:36.313Z,16.37
2018-05-09T16:40:03.924Z,20.27
2018-05-09T16:42:31.395Z,27.10
2018-05-09T16:44:58.868Z,12.37
2018-05-09T16:47:27.378Z,8.73
2018-05-09T16:49:55.855Z,11.17
2018-05-09T16:52:23.445Z,10.60
2018-05-09T16:54:50.952Z,11.10
2018-05-09T16:57:19.243Z,9.00
2018-05-09T16:59:46.688Z,5.47
2018-05-09T17:02:14.177Z,15.17
2018-05-09T17:04:41.640Z,7.90
2018-05-09T17:07:09.101Z,11.87
2018-05-09T17:09:36.600Z,18.33
2018-05-09T17:12:04.060Z,22.07
2018-05-09T17:14:31.544Z,31.43
2018-05-09T17:16:59.816Z,33.27
2018-05-09T17:19:28.073Z,39.90
2018-05-09T17:22:13.758Z,36.70
2018-05-09T17:24:41.238Z,44.07
2018-05-09T17:27:08.725Z,41.67
2018-05-09T17:29:36.203Z,45.90
2018-05-09T17:32:03.659Z,39.27
2018-05-09T17:34:31.360Z,38.93
2018-05-09T17:36:58.824Z,35.10
2018-05-09T17:39:26.279Z,34.43
2018-05-09T17:41:53.770Z,40.43
2018-05-09T17:44:21.257Z,41.03
2018-05-09T17:46:48.754Z,41.50
2018-05-09T17:49:16.219Z,41.13
2018-05-09T17:51:43.709Z,40.90
2018-05-09T17:54:11.168Z,35.20
2018-05-09T17:56:38.731Z,39.47
2018-05-09T17:59:06.208Z,39.87
2018-05-09T18:01:33.724Z,43.57
2018-05-09T18:04:01.219Z,46.87
2018-05-09T18:06:28.743Z,45.17
2018-05-09T18:08:56.998Z,46.20
2018-05-09T18:11:24.456Z,47.90
2018-05-09T18:13:51.940Z,45.17
2018-05-09T18:16:20.188Z,56.83
2018-05-09T18:18:47.665Z,48.60
2018-05-09T18:21:15.896Z,53.60
2018-05-09T18:23:43.451Z,54.73
2018-05-09T18:26:11.126Z,59.00
2018-05-09T18:28:38.647Z,53.40
2018-05-09T18:31:06.130Z,53.33
2018-05-09T18:33:33.688Z,62.50
2018-05-09T18:36:01.089Z,48.10
2018-05-09T18:38:28.585Z,44.67
2018-05-09T18:40:56.059Z,59.67
2018-05-09T18:43:23.543Z,54.33
2018-05-09T18:45:51.023Z,58.43
2018-05-09T18:48:18.510Z,48.77
2018-05-09T18:50:45.994Z,62.47
2018-05-09T18:53:13.487Z,48.00
2018-05-09T18:55:41.053Z,52.70
2018-05-09T18:58:08.581Z,44.33
2018-05-09T19:00:36.280Z,45.50
2018-05-09T19:03:03.858Z,50.07
2018-05-09T19:05:31.275Z,44.80
2018-05-09T19:07:58.791Z,56.53
2018-05-09T19:10:26.690Z,48.03
2018-05-09T19:12:54.183Z,63.53
2018-05-09T19:15:21.819Z,44.90
2018-05-09T19:17:49.492Z,45.00
2018-05-09T19:20:17.239Z,47.07
2018-05-09T19:22:44.836Z,66.90
2018-05-09T19:25:12.564Z,42.43
2018-05-09T19:27:40.150Z,39.80
2018-05-09T19:30:07.852Z,51.57
2018-05-09T19:32:35.491Z,50.10
2018-05-09T19:35:03.117Z,40.33
2018-05-09T19:37:30.758Z,46.67
2018-05-09T19:39:58.265Z,44.17
2018-05-09T19:42:26.001Z,43.23
2018-05-09T19:44:53.636Z,45.80
2018-05-09T19:47:21.296Z,46.10
2018-05-09T19:49:49.801Z,41.83
2018-05-09T19:52:17.513Z,40.03
2018-05-09T19:54:45.106Z,40.80
2018-05-09T19:57:12.579Z,44.50
2018-05-09T19:59:40.065Z,36.40
2018-05-09T20:02:07.675Z,45.00
2018-05-09T20:04:35.171Z,46.57
2018-05-09T20:07:02.643Z,47.10
2018-05-09T20:09:30.185Z,42.20
2018-05-09T20:11:57.820Z,41.20
2018-05-09T20:14:26.059Z,39.07
2018-05-09T20:16:53.527Z,37.53
2018-05-09T20:19:22.004Z,42.77
2018-05-09T20:21:50.292Z,47.97
2018-05-09T20:24:18.580Z,46.10
2018-05-09T20:26:46.111Z,35.40
2018-05-09T20:29:13.649Z,40.60
2018-05-09T20:31:57.291Z,39.40
2018-05-09T20:34:24.974Z,39.53
2018-05-09T20:36:52.574Z,39.73
2018-05-09T20:39:20.136Z,38.10
2018-05-09T20:41:47.805Z,43.73
2018-05-09T20:44:15.418Z,46.30
2018-05-09T20:46:43.266Z,36.60
2018-05-09T20:49:11.985Z,39.70
2018-05-09T20:51:51.156Z,38.07
2018-05-09T20:54:18.752Z,37.67
2018-05-09T20:56:46.398Z,38.53
2018-05-09T20:59:14.026Z,43.00
2018-05-09T21:01:47.131Z,41.90
2018-05-09T21:04:14.782Z,43.20
2018-05-09T21:06:42.345Z,45.40
2018-05-09T21:09:10.053Z,45.00
2018-05-09T21:11:37.566Z,59.17
2018-05-09T21:14:05.108Z,52.00
2018-05-09T21:16:32.589Z,47.43
2018-05-09T21:19:00.103Z,54.97
2018-05-09T21:21:28.423Z,50.47
2018-05-09T21:23:56.665Z,61.73
2018-05-09T21:26:24.123Z,58.27
2018-05-09T21:28:51.594Z,76.87
2018-05-09T21:31:19.856Z,58.03
2018-05-09T21:33:47.315Z,63.10
2018-05-09T21:36:14.777Z,65.40
2018-05-09T21:38:42.286Z,62.07
2018-05-09T21:41:09.772Z,70.17
2018-05-09T21:43:37.247Z,79.00
2018-05-09T21:46:04.700Z,85.30
2018-05-09T21:48:33.110Z,82.93
2018-05-09T21:51:00.610Z,90.13
2018-05-09T21:53:28.089Z,80.30
2018-05-09T21:55:55.638Z,92.63
2018-05-09T21:58:23.067Z,91.13
2018-05-09T22:00:50.533Z,86.87
2018-05-09T22:03:18.024Z,85.33
2018-05-09T22:05:45.509Z,84.53
2018-05-09T22:08:12.979Z,80.63
2018-05-09T22:10:41.408Z,84.47
2018-05-09T22:13:08.873Z,79.67
2018-05-09T22:15:36.409Z,94.83
2018-05-09T22:18:03.878Z,93.80
2018-05-09T22:20:31.401Z,105.97
2018-05-09T22:22:58.837Z,84.77
2018-05-09T22:25:26.343Z,78.50
2018-05-09T22:27:53.799Z,87.33
2018-05-09T22:30:21.284Z,83.20
2018-05-09T22:32:48.923Z,79.67
2018-05-09T22:35:16.390Z,79.67
2018-05-09T22:37:43.884Z,86.33
2018-05-09T22:40:11.339Z,88.40
2018-05-09T22:42:38.820Z,94.67
2018-05-09T22:45:07.095Z,82.00
2018-05-09T22:47:35.352Z,85.13
2018-05-09T22:50:02.813Z,96.73
2018-05-09T22:52:30.292Z,97.37
2018-05-09T22:54:58.543Z,80.63
2018-05-09T22:57:26.012Z,81.57
2018-05-09T22:59:53.472Z,89.33
2018-05-09T23:02:20.924Z,87.60
2018-05-09T23:04:48.411Z,90.67
2018-05-09T23:07:16.686Z,77.40
2018-05-09T23:09:44.151Z,73.17
2018-05-09T23:12:12.395Z,85.73
2018-05-09T23:14:39.892Z,74.23
2018-05-09T23:17:07.381Z,66.07
2018-05-09T23:19:34.839Z,63.27
2018-05-09T23:22:02.376Z,76.27
2018-05-09T23:24:29.820Z,69.23
2018-05-09T23:26:57.292Z,74.73
2018-05-09T23:29:24.756Z,66.57
2018-05-09T23:31:52.241Z,56.33
2018-05-09T23:34:19.707Z,59.30
2018-05-09T23:36:47.220Z,52.93
2018-05-09T23:39:14.696Z,49.00
2018-05-09T23:41:42.175Z,48.73
2018-05-09T23:44:09.710Z,53.53
2018-05-09T23:46:37.179Z,44.07
2018-05-09T23:49:04.641Z,51.80
2018-05-09T23:51:32.123Z,46.10
2018-05-09T23:53:59.588Z,49.03
2018-05-09T23:56:27.073Z,43.87
2018-05-09T23:58:55.294Z,51.90
